Time;durP1;ratioP1;P1;durP2;ratioP2;P2;SDS_P1;SDS_P2;PMS_P1;PMS_P2;Temp;Humidity;BMP_temperature;BMP_pressure;BME280_temperature;BME280_humidity;BME280_pressure;Samples;Min_cycle;Max_cycle;Signal;HPM_P1;HPM_P2
2023/05/28 00:01:07;;;;;;;4.88;2.63;;;15.30;99.90;;;;;;4959775;28;20057;-62
2023/05/28 00:03:35;;;;;;;6.32;2.75;;;15.30;99.90;;;;;;4967584;28;20856;-62
2023/05/28 00:06:01;;;;;;;4.35;3.10;;;15.30;99.90;;;;;;4971038;28;20042;-62
2023/05/28 00:08:27;;;;;;;7.47;2.90;;;15.30;99.90;;;;;;4969591;28;20635;-63
2023/05/28 00:10:59;;;;;;;5.57;2.80;;;15.30;99.90;;;;;;4968317;28;20197;-62
2023/05/28 00:13:31;;;;;;;4.88;2.63;;;15.30;99.90;;;;;;4970656;28;20046;-62
2023/05/28 00:15:57;;;;;;;6.32;3.13;;;15.30;99.90;;;;;;4963147;28;20675;-62
2023/05/28 00:18:23;;;;;;;5.25;2.55;;;15.20;99.90;;;;;;4958618;28;21806;-62
2023/05/28 00:20:49;;;;;;;3.95;2.60;;;15.20;99.90;;;;;;4969991;28;20476;-71
2023/05/28 00:23:16;;;;;;;4.18;2.78;;;15.10;99.90;;;;;;4969404;28;20038;-63
2023/05/28 00:25:42;;;;;;;4.43;2.50;;;15.10;99.90;;;;;;4966780;28;20045;-63
2023/05/28 00:28:07;;;;;;;7.90;2.65;;;15.10;99.90;;;;;;4955299;28;20583;-63
2023/05/28 00:30:33;;;;;;;6.22;2.80;;;15.00;99.90;;;;;;4970943;28;20046;-73
2023/05/28 00:32:59;;;;;;;5.38;2.67;;;15.00;99.90;;;;;;4960128;28;20061;-72
2023/05/28 00:35:25;;;;;;;5.35;2.85;;;15.00;99.90;;;;;;4932023;28;20371;-72
2023/05/28 00:37:52;;;;;;;5.93;2.70;;;14.90;99.90;;;;;;4966578;28;20565;-72
2023/05/28 00:40:18;;;;;;;5.90;2.53;;;14.90;99.90;;;;;;4974679;28;20049;-73
2023/05/28 00:42:44;;;;;;;6.45;2.70;;;14.90;99.90;;;;;;4969481;28;20042;-72
2023/05/28 00:45:11;;;;;;;5.07;3.05;;;14.80;99.90;;;;;;4973745;28;20034;-73
2023/05/28 00:47:38;;;;;;;5.53;2.90;;;14.80;99.90;;;;;;4974079;28;20034;-72
2023/05/28 00:50:07;;;;;;;10.60;3.05;;;14.80;99.90;;;;;;4971947;28;20058;-71
2023/05/28 00:52:34;;;;;;;5.63;2.97;;;14.80;99.90;;;;;;4977340;28;20042;-72
2023/05/28 00:55:00;;;;;;;4.32;2.45;;;14.70;99.90;;;;;;4973811;28;20051;-73
2023/05/28 00:57:26;;;;;;;6.53;2.72;;;14.70;99.90;;;;;;4973743;28;20023;-73
2023/05/28 00:59:57;;;;;;;5.43;2.70;;;14.70;99.90;;;;;;4976931;28;20049;-72
2023/05/28 01:02:22;;;;;;;5.20;2.63;;;14.70;99.90;;;;;;4971820;28;20050;-72
2023/05/28 01:04:50;;;;;;;3.38;2.35;;;14.60;99.90;;;;;;4971265;28;20245;-72
2023/05/28 01:07:16;;;;;;;4.35;2.75;;;14.60;99.90;;;;;;4975462;28;20046;-73
2023/05/28 01:09:42;;;;;;;4.82;2.88;;;14.60;99.90;;;;;;4973035;28;20049;-62
2023/05/28 01:12:09;;;;;;;6.05;2.67;;;14.50;99.90;;;;;;4972049;28;22575;-62
2023/05/28 01:14:37;;;;;;;6.45;2.55;;;14.40;99.90;;;;;;4972254;28;20398;-62
2023/05/28 01:17:05;;;;;;;5.57;2.70;;;14.40;99.90;;;;;;4970255;28;20046;-62
2023/05/28 01:19:31;;;;;;;4.90;2.90;;;14.40;99.90;;;;;;4970645;28;20057;-62
2023/05/28 01:22:04;;;;;;;4.30;2.80;;;14.40;99.90;;;;;;4969193;28;20104;-62
2023/05/28 01:24:33;;;;;;;6.30;2.55;;;14.40;99.90;;;;;;4971948;28;20479;-62
2023/05/28 01:27:00;;;;;;;5.93;2.33;;;14.40;99.90;;;;;;4969318;28;20146;-72
2023/05/28 01:29:25;;;;;;;7.65;2.60;;;14.30;99.90;;;;;;4972067;28;20085;-62
2023/05/28 01:31:51;;;;;;;8.75;2.83;;;14.30;99.90;;;;;;4969410;28;20057;-62
2023/05/28 01:34:17;;;;;;;5.55;2.60;;;14.30;99.90;;;;;;4970731;28;20153;-63
2023/05/28 01:36:54;;;;;;;3.90;2.78;;;14.30;99.90;;;;;;4970667;28;20038;-63
2023/05/28 01:39:22;;;;;;;3.47;2.03;;;14.30;99.90;;;;;;4968178;28;20030;-64
2023/05/28 01:41:48;;;;;;;5.20;2.40;;;14.30;99.90;;;;;;4975550;28;20185;-62
2023/05/28 01:44:18;;;;;;;4.00;2.42;;;14.30;99.90;;;;;;4968786;28;20052;-63
2023/05/28 01:46:45;;;;;;;4.45;2.58;;;14.20;99.90;;;;;;4954987;28;20073;-62
2023/05/28 01:49:12;;;;;;;4.85;2.47;;;14.20;99.90;;;;;;4970610;28;20034;-63
2023/05/28 01:51:37;;;;;;;2.70;2.45;;;14.20;99.90;;;;;;4967488;28;20074;-62
2023/05/28 01:54:03;;;;;;;3.80;2.35;;;14.20;99.90;;;;;;4970833;28;20110;-63
2023/05/28 01:56:29;;;;;;;5.72;2.58;;;14.20;99.90;;;;;;4972586;28;20052;-63
2023/05/28 01:58:55;;;;;;;5.10;2.72;;;14.20;99.90;;;;;;4972947;28;20038;-62
2023/05/28 02:01:27;;;;;;;7.13;3.00;;;14.20;99.90;;;;;;4966031;28;20181;-62
2023/05/28 02:03:53;;;;;;;4.78;2.22;;;14.20;99.90;;;;;;4968821;28;20623;-63
2023/05/28 02:06:19;;;;;;;5.45;2.58;;;14.20;99.90;;;;;;4974547;28;20326;-71
2023/05/28 02:08:45;;;;;;;6.18;2.80;;;14.20;99.90;;;;;;4971213;28;20411;-69
2023/05/28 02:11:10;;;;;;;5.10;2.25;;;14.20;99.90;;;;;;4973021;28;20116;-70
2023/05/28 02:13:36;;;;;;;6.75;2.88;;;14.20;99.90;;;;;;4957303;28;20073;-70
2023/05/28 02:16:02;;;;;;;3.63;2.30;;;14.20;99.90;;;;;;4976418;28;20057;-71
2023/05/28 02:18:27;;;;;;;4.55;2.15;;;14.10;99.90;;;;;;4976030;28;20043;-70
2023/05/28 02:20:53;;;;;;;4.05;2.28;;;14.10;99.90;;;;;;4959300;28;20065;-71
2023/05/28 02:23:19;;;;;;;3.85;2.22;;;14.10;99.90;;;;;;4967681;28;20104;-71
2023/05/28 02:25:44;;;;;;;3.00;2.25;;;14.10;99.90;;;;;;4953641;28;20304;-62
2023/05/28 02:28:10;;;;;;;4.60;2.60;;;14.10;99.90;;;;;;4967341;28;20292;-63
2023/05/28 02:30:36;;;;;;;4.82;2.60;;;14.10;99.90;;;;;;4958745;28;20042;-63
2023/05/28 02:33:03;;;;;;;5.15;2.33;;;14.00;99.90;;;;;;4965849;28;20039;-62
2023/05/28 02:35:28;;;;;;;4.22;2.33;;;14.10;99.90;;;;;;4965367;28;20426;-63
2023/05/28 02:37:54;;;;;;;4.50;2.47;;;14.10;99.90;;;;;;4969049;28;20054;-62
2023/05/28 02:40:20;;;;;;;6.75;2.58;;;14.10;99.90;;;;;;4963142;28;20062;-63
2023/05/28 02:42:45;;;;;;;3.20;2.20;;;14.10;99.90;;;;;;4965289;28;20049;-71
2023/05/28 02:45:11;;;;;;;4.03;2.38;;;14.10;99.90;;;;;;4969342;28;20050;-62
2023/05/28 02:47:37;;;;;;;5.05;2.45;;;14.10;99.90;;;;;;4942050;28;20495;-62
2023/05/28 02:50:03;;;;;;;5.97;2.08;;;14.10;99.90;;;;;;4968409;28;20703;-62
2023/05/28 02:52:28;;;;;;;3.78;2.35;;;14.10;99.90;;;;;;4961941;28;20038;-62
2023/05/28 02:54:54;;;;;;;7.03;2.40;;;14.00;99.90;;;;;;4962912;28;21307;-63
2023/05/28 02:57:20;;;;;;;7.85;2.70;;;14.00;99.90;;;;;;4970978;28;20117;-63
2023/05/28 02:59:45;;;;;;;5.93;2.42;;;14.10;99.90;;;;;;4969815;28;20065;-62
2023/05/28 03:02:11;;;;;;;3.83;2.33;;;14.10;99.90;;;;;;4969446;28;20054;-62
2023/05/28 03:04:36;;;;;;;4.55;2.30;;;14.10;99.90;;;;;;4980637;28;20038;-72
2023/05/28 03:07:02;;;;;;;6.65;2.65;;;14.10;99.90;;;;;;4979493;28;20050;-72
2023/05/28 03:09:28;;;;;;;4.28;2.35;;;14.10;99.90;;;;;;4969618;28;20039;-71
2023/05/28 03:11:54;;;;;;;5.10;2.15;;;14.10;99.90;;;;;;4982982;28;20042;-71
2023/05/28 03:14:19;;;;;;;2.67;1.83;;;14.10;99.90;;;;;;4980591;28;20062;-70
2023/05/28 03:16:45;;;;;;;6.60;2.40;;;14.10;99.90;;;;;;4977222;28;20126;-71
2023/05/28 03:19:11;;;;;;;5.35;2.25;;;14.10;99.90;;;;;;4979667;28;20250;-73
2023/05/28 03:21:38;;;;;;;5.85;2.13;;;14.10;99.90;;;;;;4960447;28;20140;-62
2023/05/28 03:24:04;;;;;;;13.30;2.75;;;14.10;99.90;;;;;;4966035;28;20432;-61
2023/05/28 03:26:29;;;;;;;10.50;3.25;;;14.10;99.90;;;;;;4976132;28;20046;-62
2023/05/28 03:28:55;;;;;;;18.00;2.70;;;14.10;99.90;;;;;;4968811;28;20046;-62
2023/05/28 03:31:25;;;;;;;6.40;2.47;;;14.10;99.90;;;;;;4972908;28;20038;-62
2023/05/28 03:33:50;;;;;;;12.98;2.58;;;14.20;99.90;;;;;;4974740;28;20157;-62
2023/05/28 03:36:17;;;;;;;4.93;2.47;;;14.20;99.90;;;;;;4970135;28;20533;-62
2023/05/28 03:38:43;;;;;;;4.68;2.60;;;14.30;99.90;;;;;;4972232;28;20104;-62
2023/05/28 03:41:08;;;;;;;4.57;2.10;;;14.30;99.90;;;;;;4973057;28;20418;-61
2023/05/28 03:43:35;;;;;;;3.45;2.25;;;14.30;99.90;;;;;;4960374;28;20034;-62
2023/05/28 03:46:00;;;;;;;4.25;2.63;;;14.30;99.90;;;;;;4967885;28;20049;-61
2023/05/28 03:48:26;;;;;;;4.13;2.28;;;14.30;99.90;;;;;;4974273;28;20056;-62
2023/05/28 03:50:52;;;;;;;7.18;2.88;;;14.30;99.90;;;;;;4971087;28;20043;-62
2023/05/28 03:53:18;;;;;;;5.55;2.80;;;14.30;99.90;;;;;;4966351;28;20089;-61
2023/05/28 03:55:43;;;;;;;5.43;2.38;;;14.40;99.90;;;;;;4975635;28;20034;-61
2023/05/28 03:58:14;;;;;;;7.75;2.78;;;14.40;99.90;;;;;;4972948;28;20014;-61
2023/05/28 04:00:40;;;;;;;5.30;2.30;;;14.50;99.90;;;;;;4969809;28;20070;-70
2023/05/28 04:03:05;;;;;;;5.10;3.25;;;14.50;99.90;;;;;;4978951;28;20046;-70
2023/05/28 04:05:33;;;;;;;4.82;2.05;;;14.60;99.90;;;;;;4982270;28;20035;-71
2023/05/28 04:07:59;;;;;;;4.25;2.60;;;14.70;99.90;;;;;;4982670;28;20049;-70
2023/05/28 04:10:25;;;;;;;4.70;1.98;;;14.70;99.90;;;;;;4986074;28;20034;-70
2023/05/28 04:12:52;;;;;;;3.25;2.15;;;14.80;99.90;;;;;;4970553;28;20768;-71
2023/05/28 04:15:18;;;;;;;7.13;2.42;;;14.80;99.90;;;;;;4986349;28;20097;-71
2023/05/28 04:17:44;;;;;;;5.50;2.72;;;15.00;99.90;;;;;;4967418;28;20473;-70
2023/05/28 04:20:10;;;;;;;4.63;2.40;;;15.10;99.90;;;;;;4979025;28;20058;-71
2023/05/28 04:22:36;;;;;;;4.28;1.85;;;15.20;99.90;;;;;;4978466;28;20117;-70
2023/05/28 04:25:02;;;;;;;5.55;2.63;;;15.20;99.90;;;;;;4985373;28;20039;-70
2023/05/28 04:27:28;;;;;;;5.15;2.10;;;15.30;99.90;;;;;;4988932;28;20817;-71
2023/05/28 04:29:56;;;;;;;3.60;2.17;;;15.30;99.90;;;;;;4985333;28;20034;-70
2023/05/28 04:32:27;;;;;;;4.15;2.20;;;15.30;99.90;;;;;;4984071;28;20100;-71
2023/05/28 04:34:53;;;;;;;4.00;2.15;;;15.40;99.90;;;;;;4983706;28;20030;-71
2023/05/28 04:37:19;;;;;;;4.47;2.08;;;15.50;99.90;;;;;;4970976;28;20049;-61
2023/05/28 04:39:45;;;;;;;4.20;2.15;;;15.60;99.90;;;;;;4978301;28;20030;-71
2023/05/28 04:42:16;;;;;;;3.90;2.08;;;15.70;99.90;;;;;;4983785;28;20097;-71
2023/05/28 04:44:42;;;;;;;6.10;2.33;;;15.80;99.90;;;;;;4975000;28;20121;-70
2023/05/28 04:47:09;;;;;;;5.15;2.45;;;15.80;99.90;;;;;;4982601;28;20506;-72
2023/05/28 04:49:34;;;;;;;4.03;2.30;;;15.80;99.90;;;;;;4983694;28;20068;-71
2023/05/28 04:52:00;;;;;;;3.55;1.83;;;15.80;99.90;;;;;;4976287;28;20665;-71
2023/05/28 04:54:26;;;;;;;4.35;2.03;;;15.90;99.90;;;;;;4965648;28;20618;-71
2023/05/28 04:56:52;;;;;;;7.35;2.60;;;16.00;99.90;;;;;;4980164;28;20042;-72
2023/05/28 04:59:18;;;;;;;4.03;2.10;;;16.10;99.90;;;;;;4977237;28;20699;-72
2023/05/28 05:01:43;;;;;;;5.72;2.05;;;16.20;99.90;;;;;;4976072;28;20127;-71
2023/05/28 05:04:09;;;;;;;5.55;2.13;;;16.20;99.90;;;;;;4974402;28;20050;-71
2023/05/28 05:06:35;;;;;;;3.17;1.80;;;16.30;99.90;;;;;;4977823;28;20029;-71
2023/05/28 05:09:01;;;;;;;4.15;1.95;;;16.40;99.90;;;;;;4975021;28;20490;-70
2023/05/28 05:11:27;;;;;;;4.47;2.00;;;16.40;99.90;;;;;;4973004;28;20042;-71
2023/05/28 05:13:52;;;;;;;6.38;1.80;;;16.50;99.90;;;;;;4979135;28;20038;-71
2023/05/28 05:16:19;;;;;;;5.32;1.92;;;16.50;99.90;;;;;;4979140;28;20063;-71
2023/05/28 05:18:45;;;;;;;3.60;1.90;;;16.60;99.90;;;;;;4973789;28;20134;-62
2023/05/28 05:21:12;;;;;;;8.18;2.70;;;16.60;99.90;;;;;;4973419;28;20045;-61
2023/05/28 05:23:39;;;;;;;7.60;2.30;;;16.70;99.90;;;;;;4972315;28;20109;-61
2023/05/28 05:26:06;;;;;;;8.68;2.67;;;16.70;99.90;;;;;;4973877;28;20049;-62
2023/05/28 05:28:32;;;;;;;8.60;2.10;;;16.70;99.90;;;;;;4966704;28;20696;-62
2023/05/28 05:30:57;;;;;;;4.93;2.05;;;16.70;99.90;;;;;;4955387;28;20050;-62
2023/05/28 05:33:23;;;;;;;7.22;1.90;;;16.80;99.90;;;;;;4974599;28;20042;-62
2023/05/28 05:35:48;;;;;;;6.03;2.03;;;16.90;99.90;;;;;;4973323;28;20037;-62
2023/05/28 05:38:14;;;;;;;4.72;2.00;;;17.10;99.90;;;;;;4971460;28;20566;-62
2023/05/28 05:40:40;;;;;;;7.22;2.30;;;17.10;99.90;;;;;;4971246;28;20034;-61
2023/05/28 05:43:05;;;;;;;6.28;1.88;;;17.20;99.90;;;;;;4974741;28;20039;-62
2023/05/28 05:45:31;;;;;;;5.80;2.30;;;17.30;99.90;;;;;;4951394;28;20045;-61
2023/05/28 05:47:57;;;;;;;2.75;2.00;;;17.40;99.90;;;;;;4975929;28;20050;-62
2023/05/28 05:50:23;;;;;;;4.72;2.25;;;17.40;99.90;;;;;;4971466;28;20034;-62
2023/05/28 05:52:48;;;;;;;6.10;1.98;;;17.40;99.90;;;;;;4977432;28;20559;-61
2023/05/28 05:55:14;;;;;;;4.03;2.22;;;17.30;99.90;;;;;;4978523;28;20050;-62
2023/05/28 05:57:41;;;;;;;5.82;2.00;;;17.40;99.90;;;;;;4978080;28;21646;-62
2023/05/28 06:00:10;;;;;;;9.18;2.30;;;17.40;99.90;;;;;;4970778;28;20030;-70
2023/05/28 06:02:38;;;;;;;3.38;2.20;;;17.50;99.90;;;;;;4978853;28;20057;-71
2023/05/28 06:05:06;;;;;;;4.20;1.95;;;17.50;99.90;;;;;;4962395;28;20035;-71
2023/05/28 06:07:32;;;;;;;3.58;2.35;;;17.60;99.90;;;;;;4971131;28;20137;-71
2023/05/28 06:09:58;;;;;;;4.93;1.92;;;17.70;99.90;;;;;;4954532;28;20031;-72
2023/05/28 06:12:24;;;;;;;4.40;2.10;;;17.80;99.90;;;;;;4974442;28;20093;-71
2023/05/28 06:14:49;;;;;;;8.57;2.05;;;17.80;99.90;;;;;;4973828;28;20038;-72
2023/05/28 06:17:15;;;;;;;5.43;2.63;;;17.80;99.90;;;;;;4970385;28;20776;-71
2023/05/28 06:19:41;;;;;;;4.68;1.80;;;17.80;99.90;;;;;;4971996;28;20525;-71
2023/05/28 06:22:09;;;;;;;4.70;2.03;;;17.80;99.90;;;;;;4963988;28;20053;-71
2023/05/28 06:24:35;;;;;;;4.80;2.08;;;17.80;99.90;;;;;;4975372;28;20077;-71
2023/05/28 06:27:03;;;;;;;4.25;2.28;;;17.80;99.90;;;;;;4972404;28;20046;-71
2023/05/28 06:29:28;;;;;;;4.75;2.10;;;17.60;99.90;;;;;;4973870;28;20481;-73
2023/05/28 06:31:54;;;;;;;7.57;2.40;;;17.60;99.90;;;;;;4970513;28;20042;-72
2023/05/28 06:34:20;;;;;;;5.50;1.60;;;17.80;99.90;;;;;;4972938;28;20034;-64
2023/05/28 06:36:45;;;;;;;3.67;1.92;;;17.90;99.90;;;;;;4960105;28;20474;-75
2023/05/28 06:39:11;;;;;;;4.68;2.13;;;17.90;99.90;;;;;;4974210;28;20323;-75
2023/05/28 06:41:37;;;;;;;4.05;2.20;;;17.90;99.90;;;;;;4974363;28;20054;-76
2023/05/28 06:44:03;;;;;;;5.10;2.00;;;18.00;99.90;;;;;;4977828;28;20121;-76
2023/05/28 06:46:28;;;;;;;5.07;2.17;;;18.00;99.90;;;;;;4962172;28;20043;-75
2023/05/28 06:48:55;;;;;;;4.03;2.00;;;17.90;99.90;;;;;;4969367;28;20589;-74
2023/05/28 06:51:21;;;;;;;3.58;1.77;;;17.90;99.90;;;;;;4967197;28;20512;-63
2023/05/28 06:53:46;;;;;;;5.38;2.28;;;17.90;99.90;;;;;;4973313;28;20038;-76
2023/05/28 06:56:12;;;;;;;4.35;2.35;;;17.80;99.90;;;;;;4967784;28;20046;-73
2023/05/28 06:58:38;;;;;;;3.72;1.88;;;17.90;99.90;;;;;;4967922;28;20462;-74
2023/05/28 07:01:04;;;;;;;5.47;2.05;;;17.90;99.90;;;;;;4961962;28;20042;-73
2023/05/28 07:03:30;;;;;;;3.55;2.28;;;18.00;99.90;;;;;;4963733;28;20038;-74
2023/05/28 07:05:56;;;;;;;6.68;2.53;;;17.90;99.90;;;;;;4962057;28;20495;-65
2023/05/28 07:08:22;;;;;;;6.78;2.28;;;18.00;99.90;;;;;;4965866;28;20049;-64
2023/05/28 07:10:47;;;;;;;7.40;2.38;;;18.30;99.90;;;;;;4974864;28;20053;-64
2023/05/28 07:13:13;;;;;;;4.43;2.13;;;18.50;99.90;;;;;;4959877;28;20045;-65
2023/05/28 07:15:39;;;;;;;3.80;2.25;;;18.60;99.90;;;;;;4966738;28;20031;-64
2023/05/28 07:18:04;;;;;;;4.25;2.08;;;18.70;99.90;;;;;;4962412;28;20065;-65
2023/05/28 07:20:30;;;;;;;10.57;2.40;;;18.70;99.90;;;;;;4957214;28;20050;-65
2023/05/28 07:22:56;;;;;;;6.32;2.10;;;18.70;99.90;;;;;;4966679;28;20046;-64
2023/05/28 07:25:22;;;;;;;7.45;2.25;;;18.70;99.90;;;;;;4968827;28;20147;-65
2023/05/28 07:27:48;;;;;;;7.10;2.33;;;18.80;99.90;;;;;;4965601;28;20026;-67
2023/05/28 07:30:14;;;;;;;17.50;2.20;;;18.80;99.90;;;;;;4948679;28;21708;-68
2023/05/28 07:32:40;;;;;;;5.90;2.15;;;18.80;99.90;;;;;;4956464;28;20045;-68
2023/05/28 07:35:06;;;;;;;6.30;2.00;;;18.90;99.90;;;;;;4962536;28;20050;-66
2023/05/28 07:37:32;;;;;;;3.78;2.03;;;18.90;99.90;;;;;;4964599;28;20175;-66
2023/05/28 07:39:57;;;;;;;5.28;2.08;;;18.90;99.90;;;;;;4967248;28;20039;-67
2023/05/28 07:42:23;;;;;;;6.78;2.33;;;19.00;99.90;;;;;;4967064;28;20038;-67
2023/05/28 07:44:49;;;;;;;16.83;2.72;;;19.10;99.90;;;;;;4964946;28;20034;-66
2023/05/28 07:47:15;;;;;;;5.80;2.15;;;19.20;99.90;;;;;;4971807;28;20037;-67
2023/05/28 07:49:41;;;;;;;4.22;2.67;;;19.20;99.90;;;;;;4956362;28;20045;-67
2023/05/28 07:52:07;;;;;;;6.30;2.17;;;19.30;99.90;;;;;;4966516;28;20034;-67
2023/05/28 07:54:34;;;;;;;3.50;1.65;;;19.30;99.90;;;;;;4970619;28;20130;-66
2023/05/28 07:57:00;;;;;;;4.75;2.15;;;19.30;99.90;;;;;;4973209;28;20238;-66
2023/05/28 07:59:26;;;;;;;3.88;2.35;;;19.40;99.90;;;;;;4972960;28;22114;-66
2023/05/28 08:01:52;;;;;;;6.32;2.35;;;19.50;99.90;;;;;;4972028;28;20124;-67
2023/05/28 08:04:18;;;;;;;4.35;2.33;;;19.60;99.90;;;;;;4969193;28;20046;-66
2023/05/28 08:06:44;;;;;;;6.28;2.10;;;19.60;99.90;;;;;;4973131;28;21463;-66
2023/05/28 08:09:09;;;;;;;4.38;2.28;;;19.60;99.90;;;;;;4972716;28;20121;-78
2023/05/28 08:11:35;;;;;;;6.78;2.20;;;19.70;99.90;;;;;;4976322;28;20720;-77
2023/05/28 08:14:01;;;;;;;8.13;2.13;;;19.70;99.90;;;;;;4979498;28;20042;-75
2023/05/28 08:16:26;;;;;;;12.68;2.60;;;19.80;99.90;;;;;;4954058;28;20037;-76
2023/05/28 08:18:52;;;;;;;14.90;2.53;;;20.00;99.90;;;;;;4973958;28;20795;-63
2023/05/28 08:21:17;;;;;;;3.10;2.08;;;20.10;99.90;;;;;;4965441;28;20854;-63
2023/05/28 08:23:43;;;;;;;3.97;2.17;;;20.20;99.90;;;;;;4973450;28;20089;-64
2023/05/28 08:26:09;;;;;;;7.60;2.05;;;20.30;99.90;;;;;;4969296;28;20038;-71
2023/05/28 08:28:36;;;;;;;5.15;2.00;;;20.30;99.90;;;;;;4976563;28;20042;-62
2023/05/28 08:31:01;;;;;;;3.80;1.95;;;20.30;99.90;;;;;;4956371;28;20038;-63
2023/05/28 08:33:27;;;;;;;4.38;2.45;;;20.20;99.90;;;;;;4974060;28;20521;-64
2023/05/28 08:35:53;;;;;;;2.97;1.80;;;20.40;99.90;;;;;;4973532;28;20132;-63
2023/05/28 08:38:18;;;;;;;4.35;2.05;;;20.50;99.90;;;;;;4971494;28;20039;-64
2023/05/28 08:40:49;;;;;;;4.25;1.98;;;20.60;99.90;;;;;;4974265;28;20173;-64
2023/05/28 08:43:15;;;;;;;3.20;2.00;;;20.60;99.90;;;;;;4968674;28;20031;-64
2023/05/28 08:45:41;;;;;;;3.85;1.98;;;20.60;99.90;;;;;;4952177;28;20435;-63
2023/05/28 08:48:07;;;;;;;4.07;1.90;;;20.80;99.90;;;;;;4969943;28;20081;-70
2023/05/28 08:50:37;;;;;;;4.82;2.20;;;20.70;99.90;;;;;;4971997;28;20149;-69
2023/05/28 08:53:03;;;;;;;5.10;2.22;;;20.50;99.90;;;;;;4975861;28;20047;-69
2023/05/28 08:55:29;;;;;;;3.40;1.60;;;20.50;99.90;;;;;;4976158;28;20516;-69
2023/05/28 08:57:55;;;;;;;3.22;2.17;;;20.40;99.90;;;;;;4973898;28;20042;-71
2023/05/28 09:00:21;;;;;;;6.43;2.33;;;20.50;99.90;;;;;;4965891;28;20035;-64
2023/05/28 09:02:47;;;;;;;4.43;1.70;;;20.60;99.90;;;;;;4966412;28;20049;-64
2023/05/28 09:05:12;;;;;;;6.43;2.00;;;20.70;99.90;;;;;;4967317;28;20062;-64
2023/05/28 09:07:38;;;;;;;4.78;2.10;;;20.70;99.90;;;;;;4971396;28;20410;-69
2023/05/28 09:10:04;;;;;;;9.95;2.30;;;20.80;99.90;;;;;;4967457;28;20038;-69
2023/05/28 09:12:30;;;;;;;4.63;2.20;;;21.00;99.90;;;;;;4968579;28;20050;-69
2023/05/28 09:14:56;;;;;;;3.40;2.20;;;21.10;99.90;;;;;;4970232;28;20049;-62
2023/05/28 09:17:32;;;;;;;4.18;2.10;;;21.20;99.90;;;;;;4973779;28;20133;-62
2023/05/28 09:19:59;;;;;;;5.70;2.20;;;21.20;99.90;;;;;;4963948;28;20495;-70
2023/05/28 09:22:26;;;;;;;4.35;1.88;;;21.40;99.90;;;;;;4974095;28;20112;-68
2023/05/28 09:24:54;;;;;;;3.90;1.92;;;21.40;99.90;;;;;;4973868;28;20043;-63
2023/05/28 09:27:21;;;;;;;4.47;2.00;;;21.40;99.90;;;;;;4965080;28;20038;-64
2023/05/28 09:29:47;;;;;;;3.13;2.00;;;21.50;99.90;;;;;;4974796;28;20039;-63
2023/05/28 09:32:22;;;;;;;4.93;2.45;;;21.60;99.90;;;;;;4974662;28;20037;-63
2023/05/28 09:34:51;;;;;;;2.88;2.00;;;21.70;99.90;;;;;;4969532;28;20034;-63
2023/05/28 09:37:17;;;;;;;8.20;2.55;;;21.70;99.90;;;;;;4971921;28;20027;-63
2023/05/28 09:39:43;;;;;;;5.05;2.50;;;21.80;99.90;;;;;;4975135;28;20368;-62
2023/05/28 09:42:10;;;;;;;6.35;2.60;;;21.90;99.90;;;;;;4972478;28;20050;-63
2023/05/28 09:44:37;;;;;;;3.92;2.08;;;21.90;99.90;;;;;;4969279;28;20031;-63
2023/05/28 09:47:21;;;;;;;3.53;2.25;;;22.00;99.90;;;;;;4970397;28;20120;-63
2023/05/28 09:49:49;;;;;;;3.92;2.10;;;22.00;99.90;;;;;;4969744;28;20108;-63
2023/05/28 09:52:20;;;;;;;3.72;2.10;;;22.00;99.90;;;;;;4968754;28;20073;-63
2023/05/28 09:54:53;;;;;;;3.80;2.40;;;21.90;99.90;;;;;;4972180;28;22098;-65
2023/05/28 09:57:32;;;;;;;6.00;2.60;;;21.90;99.90;;;;;;4966438;28;20038;-75
2023/05/28 10:00:11;;;;;;;16.23;2.47;;;22.00;99.90;;;;;;4970390;28;20057;-82
2023/05/28 10:03:10;;;;;;;5.05;2.08;;;22.10;99.90;;;;;;4970364;28;20259;-67
2023/05/28 10:05:40;;;;;;;5.47;2.42;;;22.10;99.90;;;;;;4970529;28;20534;-69
2023/05/28 10:08:07;;;;;;;6.05;2.10;;;22.20;99.80;;;;;;4959462;28;20926;-69
2023/05/28 10:10:34;;;;;;;7.45;2.90;;;22.10;99.80;;;;;;4967854;28;20034;-69
2023/05/28 10:13:01;;;;;;;4.28;2.20;;;22.10;99.90;;;;;;4967646;28;20049;-68
2023/05/28 10:15:26;;;;;;;5.30;2.33;;;22.10;99.90;;;;;;4967574;28;20046;-69
2023/05/28 10:17:53;;;;;;;4.13;2.13;;;22.20;99.90;;;;;;4966787;28;20046;-70
2023/05/28 10:20:18;;;;;;;4.50;2.20;;;22.40;99.90;;;;;;4965274;28;20361;-70
2023/05/28 10:22:44;;;;;;;4.03;2.20;;;22.50;99.90;;;;;;4962148;28;20050;-70
2023/05/28 10:25:11;;;;;;;3.00;2.03;;;22.50;98.30;;;;;;4966719;28;20161;-70
2023/05/28 10:27:44;;;;;;;5.80;2.35;;;22.50;99.30;;;;;;4952528;28;20038;-71
2023/05/28 10:30:12;;;;;;;3.65;2.40;;;22.50;98.60;;;;;;4959908;28;20047;-74
2023/05/28 10:32:41;;;;;;;3.33;2.03;;;22.60;97.80;;;;;;4964086;28;21510;-70
2023/05/28 10:35:11;;;;;;;4.60;2.00;;;22.60;97.50;;;;;;4966363;28;20038;-71
2023/05/28 10:37:36;;;;;;;5.10;2.38;;;22.60;97.00;;;;;;4967927;28;20802;-69
2023/05/28 10:40:03;;;;;;;3.85;2.25;;;22.60;95.90;;;;;;4967737;28;20047;-69
2023/05/28 10:42:28;;;;;;;4.25;2.40;;;22.60;95.30;;;;;;4967214;28;20042;-69
2023/05/28 10:45:12;;;;;;;3.50;2.22;;;22.60;94.20;;;;;;4965621;28;20507;-69
2023/05/28 10:47:52;;;;;;;3.17;2.38;;;22.60;95.40;;;;;;4971499;28;20049;-70
2023/05/28 10:50:19;;;;;;;5.13;2.53;;;22.70;96.00;;;;;;4962489;28;20136;-69
2023/05/28 10:53:07;;;;;;;3.88;2.03;;;22.90;97.30;;;;;;4958745;28;20060;-67
2023/05/28 10:56:01;;;;;;;3.70;2.20;;;22.90;94.60;;;;;;4947519;28;20049;-68
2023/05/28 10:58:27;;;;;;;3.92;2.60;;;22.90;95.20;;;;;;4967940;28;20571;-71
2023/05/28 11:01:20;;;;;;;8.02;2.67;;;22.90;95.40;;;;;;4964385;28;20313;-64
2023/05/28 11:03:55;;;;;;;4.75;2.42;;;23.00;96.20;;;;;;4966046;28;20038;-64
2023/05/28 11:06:24;;;;;;;6.82;2.45;;;23.10;95.30;;;;;;4965966;28;20069;-64
2023/05/28 11:08:50;;;;;;;7.15;2.40;;;23.20;93.00;;;;;;4958992;28;20064;-64
2023/05/28 11:11:17;;;;;;;5.03;2.42;;;23.10;92.60;;;;;;4967096;28;20046;-64
2023/05/28 11:13:47;;;;;;;3.85;2.15;;;23.10;91.70;;;;;;4970714;28;20380;-65
2023/05/28 11:16:15;;;;;;;5.35;2.50;;;23.10;91.80;;;;;;4971474;28;20335;-64
2023/05/28 11:19:03;;;;;;;8.23;2.88;;;23.10;91.40;;;;;;4964618;28;20815;-65
2023/05/28 11:21:29;;;;;;;8.02;2.65;;;23.10;91.50;;;;;;4963587;28;20046;-69
2023/05/28 11:24:05;;;;;;;2.92;2.15;;;23.10;92.70;;;;;;4949527;28;20132;-67
2023/05/28 11:26:33;;;;;;;3.47;2.63;;;23.20;93.30;;;;;;4959995;28;20046;-68
2023/05/28 11:28:59;;;;;;;3.63;2.63;;;23.30;91.30;;;;;;4968996;28;20447;-69
2023/05/28 11:31:25;;;;;;;8.68;2.72;;;23.40;92.30;;;;;;4969397;28;20442;-69
2023/05/28 11:33:51;;;;;;;8.00;2.40;;;23.40;91.70;;;;;;4963005;28;20467;-69
2023/05/28 11:36:18;;;;;;;4.95;1.95;;;23.40;91.00;;;;;;4956486;28;20666;-69
2023/05/28 11:38:44;;;;;;;4.60;2.80;;;23.40;90.70;;;;;;4964348;28;20472;-69
2023/05/28 11:41:09;;;;;;;7.13;2.28;;;23.40;89.30;;;;;;4960689;28;20034;-69
2023/05/28 11:43:35;;;;;;;4.28;2.10;;;23.30;90.80;;;;;;4963152;28;20626;-69
2023/05/28 11:46:01;;;;;;;3.40;2.00;;;23.40;90.20;;;;;;4967482;28;20049;-68
2023/05/28 11:48:27;;;;;;;4.28;2.38;;;23.40;90.30;;;;;;4963613;28;20034;-70
2023/05/28 11:50:58;;;;;;;6.82;2.80;;;23.40;90.50;;;;;;4962766;28;20035;-69
2023/05/28 11:53:24;;;;;;;10.02;2.92;;;23.40;88.20;;;;;;4967655;28;20042;-70
2023/05/28 11:55:50;;;;;;;4.32;1.98;;;23.50;92.40;;;;;;4968894;28;20045;-69
2023/05/28 11:58:15;;;;;;;4.85;2.10;;;23.50;89.10;;;;;;4964429;28;20045;-69
2023/05/28 12:00:41;;;;;;;6.00;2.30;;;23.50;90.30;;;;;;4966677;28;20074;-70
2023/05/28 12:03:10;;;;;;;5.57;2.25;;;23.50;87.50;;;;;;4962057;28;20039;-71
2023/05/28 12:05:40;;;;;;;2.60;1.80;;;23.40;86.30;;;;;;4959459;28;20066;-71
2023/05/28 12:08:06;;;;;;;3.63;2.42;;;23.40;85.50;;;;;;4957762;28;20038;-69
2023/05/28 12:10:31;;;;;;;5.40;2.13;;;23.40;84.50;;;;;;4947191;28;20078;-70
2023/05/28 12:12:57;;;;;;;4.50;2.30;;;23.40;85.00;;;;;;4960635;28;20070;-69
2023/05/28 12:15:32;;;;;;;4.30;2.55;;;23.40;85.90;;;;;;4956698;28;20035;-71
2023/05/28 12:18:00;;;;;;;4.90;2.40;;;23.40;85.40;;;;;;4962405;28;20066;-66
2023/05/28 12:20:33;;;;;;;3.33;2.30;;;23.50;90.70;;;;;;4943841;28;20054;-67
2023/05/28 12:23:11;;;;;;;4.72;2.20;;;23.70;88.80;;;;;;4954860;28;20487;-65
2023/05/28 12:25:45;;;;;;;3.92;2.30;;;23.80;87.70;;;;;;4964543;28;20073;-66
2023/05/28 12:28:11;;;;;;;5.15;2.20;;;23.80;88.50;;;;;;4964110;28;20665;-66
2023/05/28 12:30:39;;;;;;;3.45;2.03;;;23.80;88.80;;;;;;4960740;28;20122;-66
2023/05/28 12:33:05;;;;;;;3.15;2.20;;;23.90;90.60;;;;;;4960266;28;20053;-67
2023/05/28 12:35:30;;;;;;;4.10;2.72;;;24.00;87.60;;;;;;4956714;28;20038;-67
2023/05/28 12:37:56;;;;;;;4.07;2.65;;;23.90;84.60;;;;;;4954198;28;20030;-67
2023/05/28 12:40:22;;;;;;;3.65;1.95;;;23.80;81.80;;;;;;4970679;28;20435;-67
2023/05/28 12:42:48;;;;;;;3.53;2.35;;;23.80;81.90;;;;;;4974303;28;20046;-66
2023/05/28 12:45:13;;;;;;;3.20;2.35;;;23.80;83.10;;;;;;4984418;28;20149;-66